Time;durP1;ratioP1;P1;durP2;ratioP2;P2;SDS_P1;SDS_P2;PMS_P1;PMS_P2;Temp;Humidity;BMP_temperature;BMP_pressure;BME280_temperature;BME280_humidity;BME280_pressure;Samples;Min_cycle;Max_cycle;Signal;HPM_P1;HPM_P2
2022/04/26 03:36:11;;;;;;;7.53;5.45;;;;;;;10.04;60.77;101484.44;5090093;28;20153;-63
2022/04/26 03:38:41;;;;;;;6.20;4.93;;;;;;;10.06;60.92;101482.28;5088990;28;20115;-63
2022/04/26 03:41:07;;;;;;;7.97;5.50;;;;;;;9.98;61.36;101482.59;5089555;28;20024;-63
2022/04/26 03:43:32;;;;;;;8.18;5.85;;;;;;;9.97;61.23;101487.31;5088721;28;20034;-63
2022/04/26 03:45:58;;;;;;;6.68;4.93;;;;;;;9.98;61.71;101491.78;5090311;28;20486;-63
2022/04/26 03:48:23;;;;;;;9.60;5.78;;;;;;;10.00;61.48;101492.38;5088683;28;20035;-63
2022/04/26 03:50:48;;;;;;;7.80;5.03;;;;;;;10.01;61.24;101485.75;5089220;28;20028;-63
2022/04/26 03:53:14;;;;;;;7.65;5.25;;;;;;;10.01;61.46;101493.22;5086076;28;20115;-63
2022/04/26 03:55:39;;;;;;;7.78;5.70;;;;;;;10.02;61.84;101490.25;5082317;28;20379;-63
2022/04/26 03:58:05;;;;;;;6.97;6.13;;;;;;;10.02;61.89;101495.78;5089312;28;20063;-63
2022/04/26 04:00:30;;;;;;;8.50;5.38;;;;;;;10.05;61.92;101498.06;5089426;28;20067;-64
2022/04/26 04:02:55;;;;;;;7.03;5.30;;;;;;;10.06;61.50;101493.38;5088168;28;20028;-64
2022/04/26 04:05:21;;;;;;;8.55;6.40;;;;;;;10.02;61.52;101486.59;5090280;28;20394;-63
2022/04/26 04:07:47;;;;;;;8.43;5.68;;;;;;;10.01;62.31;101487.69;5089398;28;20544;-64
2022/04/26 04:10:12;;;;;;;10.18;6.18;;;;;;;10.01;61.77;101499.63;5089277;28;20119;-63
2022/04/26 04:12:37;;;;;;;6.78;6.07;;;;;;;10.00;62.38;101502.63;5091117;28;20027;-63
2022/04/26 04:15:06;;;;;;;9.40;5.63;;;;;;;9.99;62.54;101506.50;5090227;28;20504;-63
2022/04/26 04:17:31;;;;;;;6.85;5.55;;;;;;;9.97;62.18;101517.81;5086870;28;20036;-63
2022/04/26 04:19:57;;;;;;;7.90;5.90;;;;;;;9.93;62.74;101516.59;5090107;28;20115;-64
2022/04/26 04:22:22;;;;;;;7.93;5.82;;;;;;;9.95;62.35;101517.22;5088344;28;20031;-64
2022/04/26 04:24:48;;;;;;;11.02;6.10;;;;;;;9.96;62.96;101518.91;5089685;28;20031;-63
2022/04/26 04:27:13;;;;;;;12.38;6.05;;;;;;;9.99;62.37;101526.75;5089434;28;20055;-63
2022/04/26 04:29:38;;;;;;;7.78;6.05;;;;;;;9.98;62.50;101516.75;5078883;28;20033;-64
2022/04/26 04:32:04;;;;;;;8.32;5.78;;;;;;;9.97;62.46;101528.06;5086871;28;20044;-63
2022/04/26 04:34:29;;;;;;;11.15;5.93;;;;;;;9.98;62.67;101518.66;5090515;28;20482;-63
2022/04/26 04:36:54;;;;;;;8.30;5.88;;;;;;;9.99;62.13;101529.53;5090198;28;20036;-63
2022/04/26 04:39:20;;;;;;;8.80;6.38;;;;;;;10.00;62.30;101530.38;5089078;28;20020;-63
2022/04/26 04:41:51;;;;;;;7.25;5.93;;;;;;;9.97;62.54;101536.38;5088509;28;20044;-63
2022/04/26 04:44:17;;;;;;;7.18;5.88;;;;;;;9.98;62.54;101538.94;5092467;28;20020;-63
2022/04/26 04:46:43;;;;;;;8.07;5.82;;;;;;;9.94;62.97;101537.72;5091169;28;20032;-63
2022/04/26 04:49:09;;;;;;;8.32;6.40;;;;;;;9.97;62.38;101536.38;5093332;28;20109;-63
2022/04/26 04:51:34;;;;;;;9.27;6.55;;;;;;;9.97;62.66;101545.53;5092601;28;20055;-63
2022/04/26 04:54:01;;;;;;;11.90;6.45;;;;;;;9.93;63.00;101546.25;5089299;28;20039;-63
2022/04/26 04:56:27;;;;;;;10.50;5.82;;;;;;;9.95;63.00;101549.66;5093739;28;20417;-63
2022/04/26 04:58:52;;;;;;;9.73;6.40;;;;;;;9.95;63.04;101556.03;5092982;28;20035;-64
2022/04/26 05:01:18;;;;;;;8.50;5.93;;;;;;;9.95;62.81;101557.97;5090013;28;20127;-63
2022/04/26 05:03:43;;;;;;;8.40;6.40;;;;;;;9.95;63.03;101556.03;5091340;28;20107;-63
2022/04/26 05:06:11;;;;;;;8.70;6.03;;;;;;;9.96;63.10;101559.66;5093573;28;20031;-63
2022/04/26 05:08:36;;;;;;;9.38;6.15;;;;;;;9.97;63.00;101564.94;5090923;28;20028;-63
2022/04/26 05:11:01;;;;;;;11.07;6.40;;;;;;;9.94;63.29;101567.34;5089259;28;20031;-64
2022/04/26 05:13:27;;;;;;;12.52;6.88;;;;;;;9.94;62.98;101570.13;5090107;28;20060;-63
2022/04/26 05:15:52;;;;;;;8.82;6.18;;;;;;;9.95;62.77;101578.22;5083898;28;20499;-64
2022/04/26 05:18:17;;;;;;;11.10;6.72;;;;;;;9.95;62.97;101578.22;5091144;28;20111;-64
2022/04/26 05:20:43;;;;;;;10.18;6.45;;;;;;;9.95;63.13;101577.38;5085598;28;20048;-64
2022/04/26 05:25:53;;;;;;;8.80;6.70;;;;;;;9.99;63.07;101590.53;5094668;28;20295;-63
2022/04/26 05:28:18;;;;;;;12.65;7.32;;;;;;;9.97;63.15;101587.13;5089199;28;20028;-64
2022/04/26 05:30:43;;;;;;;9.43;6.55;;;;;;;9.96;62.93;101584.63;5088838;28;20031;-64
2022/04/26 05:33:08;;;;;;;9.85;6.40;;;;;;;10.00;63.49;101592.22;5091069;28;20024;-64
2022/04/26 05:35:34;;;;;;;10.05;6.53;;;;;;;10.00;63.29;101591.38;5088470;28;20119;-64
2022/04/26 05:37:59;;;;;;;8.73;6.68;;;;;;;10.00;63.14;101592.22;5104838;28;20036;-64
2022/04/26 05:40:24;;;;;;;9.05;6.38;;;;;;;10.01;63.54;101593.91;5084634;28;20055;-65
2022/04/26 05:42:49;;;;;;;9.27;6.85;;;;;;;10.02;63.20;101592.88;5088070;28;20031;-63
2022/04/26 05:45:15;;;;;;;10.40;6.72;;;;;;;9.95;63.51;101594.88;5089400;28;20032;-65
2022/04/26 05:47:41;;;;;;;9.65;6.95;;;;;;;9.97;63.74;101603.78;5097257;28;20042;-64
2022/04/26 05:50:16;;;;;;;9.73;6.72;;;;;;;9.95;63.81;101600.41;5087802;28;20054;-63
2022/04/26 05:52:42;;;;;;;11.02;6.38;;;;;;;10.03;63.50;101594.56;5090297;28;20514;-64
2022/04/26 05:55:10;;;;;;;10.73;6.80;;;;;;;10.02;63.80;101603.09;5085366;28;20119;-65
2022/04/26 05:57:37;;;;;;;10.95;7.05;;;;;;;10.02;64.14;101601.19;5100006;28;20059;-65
2022/04/26 06:00:04;;;;;;;9.32;7.25;;;;;;;10.04;64.25;101603.72;5098793;27;20031;-63
2022/04/26 06:02:30;;;;;;;10.48;6.68;;;;;;;10.03;64.10;101602.88;5086879;28;20044;-65
2022/04/26 06:04:58;;;;;;;11.27;7.40;;;;;;;10.08;63.74;101605.78;5098032;28;20078;-64
2022/04/26 06:07:23;;;;;;;9.77;7.50;;;;;;;10.01;63.93;101599.47;5090252;28;20031;-65
2022/04/26 06:09:53;;;;;;;12.05;7.82;;;;;;;10.02;64.22;101615.06;5090075;28;20023;-64
2022/04/26 06:12:19;;;;;;;10.27;6.97;;;;;;;10.05;64.35;101614.56;5087380;28;20024;-65
2022/04/26 06:14:44;;;;;;;10.20;7.50;;;;;;;10.10;63.68;101625.00;5099248;28;20027;-65
2022/04/26 06:17:09;;;;;;;10.80;7.40;;;;;;;10.09;63.83;101613.03;5106875;28;20032;-65
2022/04/26 06:19:35;;;;;;;11.95;7.28;;;;;;;10.11;64.23;101617.50;5085321;28;20031;-67
2022/04/26 06:22:00;;;;;;;11.85;7.65;;;;;;;10.12;63.77;101620.03;5085312;27;20055;-66
2022/04/26 06:24:25;;;;;;;9.98;8.60;;;;;;;10.15;64.41;101618.75;5096587;28;20045;-66
2022/04/26 06:26:51;;;;;;;13.32;8.15;;;;;;;10.18;64.42;101626.56;5102360;28;20027;-66
2022/04/26 06:29:16;;;;;;;12.85;7.50;;;;;;;10.19;64.61;101623.59;5095635;28;20028;-65
2022/04/26 06:31:42;;;;;;;9.98;7.78;;;;;;;10.21;64.08;101631.66;5097631;28;20790;-64
2022/04/26 06:34:07;;;;;;;12.95;8.38;;;;;;;10.18;64.46;101640.44;5089510;28;20536;-63
2022/04/26 06:36:32;;;;;;;10.80;8.10;;;;;;;10.20;64.40;101632.75;5100504;28;20028;-63
2022/04/26 06:38:58;;;;;;;14.07;8.35;;;;;;;10.20;64.38;101635.53;5082971;28;20036;-64
2022/04/26 06:41:23;;;;;;;12.10;7.90;;;;;;;10.24;64.25;101645.09;5102627;28;20040;-63
2022/04/26 06:43:48;;;;;;;13.20;7.90;;;;;;;10.24;64.35;101642.31;5088121;28;20522;-63
2022/04/26 06:46:13;;;;;;;11.93;8.60;;;;;;;10.25;64.38;101642.09;5081151;28;20016;-62
2022/04/26 06:48:39;;;;;;;13.13;9.20;;;;;;;10.26;63.92;101641.03;5084163;28;20088;-64
2022/04/26 06:51:04;;;;;;;12.77;8.60;;;;;;;10.23;64.64;101648.94;5094330;28;20466;-63
2022/04/26 06:53:29;;;;;;;13.82;9.40;;;;;;;10.23;64.61;101641.47;5085865;28;20019;-63
2022/04/26 06:55:55;;;;;;;15.05;9.40;;;;;;;10.23;64.73;101657.28;5090379;28;20083;-66
2022/04/26 06:58:23;;;;;;;15.82;9.63;;;;;;;10.26;64.49;101652.16;5095957;28;20031;-67
2022/04/26 07:00:49;;;;;;;13.75;9.10;;;;;;;10.20;64.53;101660.50;5087566;28;20084;-63
2022/04/26 07:03:15;;;;;;;13.00;9.55;;;;;;;10.22;64.58;101652.81;5087206;28;20039;-65
2022/04/26 07:05:41;;;;;;;17.10;9.93;;;;;;;10.30;64.42;101653.38;5090300;28;20388;-63
2022/04/26 07:08:07;;;;;;;15.80;9.82;;;;;;;10.32;64.60;101656.75;5097307;28;20035;-63
2022/04/26 07:10:32;;;;;;;11.98;10.05;;;;;;;10.38;63.95;101659.69;5082013;28;20028;-66
2022/04/26 07:12:58;;;;;;;14.98;10.25;;;;;;;10.44;63.86;101658.75;5084351;28;20786;-64
2022/04/26 07:15:24;;;;;;;11.90;10.10;;;;;;;10.53;63.72;101661.00;5085255;28;20027;-66
2022/04/26 07:17:49;;;;;;;17.17;10.60;;;;;;;10.62;63.39;101660.69;5092111;28;20483;-65
2022/04/26 07:20:15;;;;;;;12.88;10.05;;;;;;;10.64;62.94;101659.34;5088712;28;20035;-67
2022/04/26 07:22:40;;;;;;;13.75;10.10;;;;;;;10.67;62.65;101658.88;5087421;28;20020;-68
2022/04/26 07:25:07;;;;;;;16.67;11.00;;;;;;;10.73;62.86;101665.44;5082410;28;20024;-64
2022/04/26 07:27:33;;;;;;;12.23;10.25;;;;;;;10.78;62.66;101663.63;5097309;28;20031;-62
2022/04/26 07:30:02;;;;;;;15.18;9.73;;;;;;;10.76;62.08;101667.72;5081490;28;20098;-64
2022/04/26 07:35:12;;;;;;;14.63;10.05;;;;;;;10.80;61.63;101677.28;5087384;28;20116;-64
2022/04/26 07:37:39;;;;;;;13.65;10.30;;;;;;;10.80;61.60;101680.06;5093041;28;20535;-64
2022/04/26 07:40:05;;;;;;;10.75;8.90;;;;;;;10.81;61.20;101681.78;5097254;28;20027;-63
2022/04/26 07:42:30;;;;;;;12.80;9.27;;;;;;;10.81;60.87;101676.22;5101367;28;20378;-65
2022/04/26 07:44:55;;;;;;;15.10;8.38;;;;;;;10.85;60.20;101682.16;5090294;28;20150;-64
2022/04/26 07:47:24;;;;;;;12.05;8.63;;;;;;;10.85;60.36;101677.44;5103269;28;20039;-63
2022/04/26 07:49:49;;;;;;;15.85;9.00;;;;;;;10.87;60.18;101686.38;5099147;28;20040;-64
2022/04/26 07:52:18;;;;;;;12.23;8.63;;;;;;;10.89;60.25;101689.78;5091092;28;20100;-65
2022/04/26 07:54:45;;;;;;;15.75;9.10;;;;;;;10.87;60.42;101691.94;5089834;28;20065;-64
2022/04/26 07:57:11;;;;;;;15.82;9.45;;;;;;;10.87;60.31;101700.25;5087746;28;20031;-64
2022/04/26 07:59:36;;;;;;;16.98;9.18;;;;;;;10.92;60.39;101699.56;5094520;28;20024;-64
2022/04/26 08:02:02;;;;;;;13.93;9.18;;;;;;;10.95;60.49;101702.72;5107022;28;20423;-65
2022/04/26 08:04:27;;;;;;;10.68;9.07;;;;;;;10.98;60.33;101705.03;5089873;28;20035;-65
2022/04/26 08:06:52;;;;;;;14.93;8.98;;;;;;;10.96;59.97;101700.78;5107093;28;20031;-65
2022/04/26 08:09:17;;;;;;;15.23;9.60;;;;;;;10.94;59.23;101703.81;5090522;28;20115;-64
2022/04/26 08:11:43;;;;;;;14.60;9.40;;;;;;;10.97;59.93;101706.13;5083982;28;20135;-64
2022/04/26 08:14:08;;;;;;;10.57;8.68;;;;;;;11.01;60.17;101709.28;5088939;28;20035;-65
2022/04/26 08:16:33;;;;;;;12.82;8.80;;;;;;;11.01;59.95;101720.38;5104347;28;20023;-64
2022/04/26 08:18:59;;;;;;;12.65;8.82;;;;;;;11.02;59.78;101720.13;5102862;28;20028;-63
2022/04/26 08:21:25;;;;;;;12.02;8.93;;;;;;;11.10;59.84;101727.28;5093249;28;20036;-64
2022/04/26 08:29:19;;;;;;;12.82;8.77;;;;;;;11.20;59.38;101732.28;5099352;28;20035;-61
2022/04/26 08:31:44;;;;;;;16.23;8.55;;;;;;;11.25;59.38;101733.28;5097766;28;20411;-60
2022/04/26 08:34:12;;;;;;;17.48;8.93;;;;;;;11.35;59.53;101734.63;5081107;28;20024;-65
2022/04/26 08:36:38;;;;;;;13.63;9.20;;;;;;;11.46;60.21;101734.66;5085786;28;20020;-62
2022/04/26 08:39:03;;;;;;;11.98;8.95;;;;;;;11.59;59.76;101747.50;5088798;28;20483;-62
2022/04/26 08:41:29;;;;;;;13.65;8.90;;;;;;;11.63;58.69;101751.53;5086336;28;20373;-60
2022/04/26 08:43:55;;;;;;;11.30;8.13;;;;;;;11.65;58.52;101743.78;5092287;28;20580;-61
2022/04/26 08:46:20;;;;;;;10.45;7.63;;;;;;;11.61;58.40;101745.34;5085229;28;20032;-62
2022/04/26 08:51:30;;;;;;;12.45;7.03;;;;;;;11.67;58.04;101747.19;5093979;28;20051;-61
2022/04/26 08:53:55;;;;;;;13.07;7.45;;;;;;;11.69;57.88;101752.50;5079749;28;20033;-62
2022/04/26 08:56:23;;;;;;;9.93;7.18;;;;;;;11.65;57.98;101743.78;5090135;28;20139;-61
2022/04/26 08:58:50;;;;;;;9.70;7.13;;;;;;;11.70;58.05;101751.41;5091754;28;20063;-60
2022/04/26 09:01:18;;;;;;;12.02;7.40;;;;;;;11.73;58.08;101753.72;5081361;28;20090;-62
2022/04/26 09:03:56;;;;;;;13.88;7.28;;;;;;;11.78;57.85;101748.28;5082136;28;20059;-62
2022/04/26 09:06:41;;;;;;;11.65;6.80;;;;;;;11.93;57.84;101743.13;5089054;28;20028;-62
2022/04/26 09:09:15;;;;;;;11.55;6.80;;;;;;;12.04;56.89;101753.41;5094055;28;20035;-62
2022/04/26 09:11:43;;;;;;;9.05;6.53;;;;;;;12.11;56.83;101746.91;5093641;28;20052;-61
2022/04/26 09:14:29;;;;;;;11.68;7.00;;;;;;;12.27;56.75;101751.75;5085040;28;20051;-62
2022/04/26 09:17:17;;;;;;;10.68;6.53;;;;;;;12.43;55.95;101751.00;5093360;28;20020;-63
2022/04/26 09:19:47;;;;;;;13.10;6.45;;;;;;;12.52;55.26;101757.03;5084628;28;20037;-62
2022/04/26 09:22:17;;;;;;;11.80;6.03;;;;;;;12.56;54.84;101749.88;5087428;28;20596;-62
2022/04/26 09:24:54;;;;;;;12.18;6.68;;;;;;;12.59;54.83;101756.91;5090127;28;20036;-62
2022/04/26 09:27:20;;;;;;;10.60;6.07;;;;;;;12.64;53.83;101751.44;5090511;28;20032;-62
2022/04/26 09:29:47;;;;;;;9.63;5.53;;;;;;;12.72;54.31;101760.25;5089832;28;20024;-62
2022/04/26 09:32:12;;;;;;;9.73;6.10;;;;;;;12.84;53.25;101764.97;5087093;28;20480;-62
2022/04/26 09:34:38;;;;;;;11.75;6.28;;;;;;;12.87;52.91;101765.31;5087727;28;20043;-63
2022/04/26 09:37:05;;;;;;;10.82;5.60;;;;;;;12.95;52.77;101767.72;5091516;28;20039;-62
2022/04/26 09:39:30;;;;;;;9.30;5.07;;;;;;;13.02;51.67;101775.94;5091575;28;20052;-62
2022/04/26 09:41:55;;;;;;;8.73;5.70;;;;;;;13.05;50.96;101771.81;5089640;28;20236;-63
2022/04/26 09:44:38;;;;;;;9.30;5.55;;;;;;;13.12;51.92;101778.09;5076021;28;20495;-63
2022/04/26 09:47:06;;;;;;;;;;;;;;;13.24;52.79;101787.28;5086014;28;20092;-63
2022/04/26 09:49:37;;;;;;;8.65;5.32;;;;;;;13.24;50.20;101784.50;5088386;28;20287;-63
2022/04/26 09:52:02;;;;;;;8.63;5.15;;;;;;;13.30;49.49;101789.09;5089331;28;20027;-63
2022/04/26 09:54:29;;;;;;;10.40;5.07;;;;;;;13.37;50.17;101787.00;5091189;28;20028;-63
2022/04/26 09:56:54;;;;;;;8.07;5.10;;;;;;;13.42;49.48;101794.63;5090207;28;20564;-63
2022/04/26 09:59:28;;;;;;;8.10;4.82;;;;;;;13.49;49.21;101790.59;5092471;28;20036;-63
2022/04/26 10:02:02;;;;;;;10.05;5.65;;;;;;;13.56;49.34;101795.16;5085271;28;20048;-63
2022/04/26 10:04:34;;;;;;;8.07;5.07;;;;;;;13.59;49.21;101791.88;5094046;28;20032;-62
2022/04/26 10:07:07;;;;;;;8.80;5.10;;;;;;;13.63;50.35;101804.22;5093649;28;20031;-63
2022/04/26 10:09:33;;;;;;;8.70;5.45;;;;;;;13.68;49.73;101798.75;5090407;28;20062;-63
2022/04/26 10:12:01;;;;;;;9.70;5.32;;;;;;;13.73;50.11;101804.41;5089165;28;20051;-63
2022/04/26 10:14:29;;;;;;;12.25;5.55;;;;;;;13.82;49.99;101802.06;5084279;28;20024;-63
2022/04/26 10:16:55;;;;;;;13.68;5.32;;;;;;;13.86;49.49;101800.44;5081242;28;20505;-62
2022/04/26 10:19:37;;;;;;;8.15;5.53;;;;;;;13.98;50.34;101807.63;5099646;28;20386;-62
2022/04/26 10:22:03;;;;;;;7.78;4.97;;;;;;;14.02;49.21;101802.41;5092913;28;20479;-63
2022/04/26 10:24:28;;;;;;;9.23;5.38;;;;;;;14.03;49.87;101814.41;5089455;28;20028;-64
2022/04/26 10:27:17;;;;;;;7.45;5.25;;;;;;;14.08;49.87;101814.53;5089885;28;20032;-64
2022/04/26 10:29:46;;;;;;;9.43;5.30;;;;;;;14.06;49.05;101814.75;5090962;28;20032;-63
2022/04/26 10:32:27;;;;;;;7.70;5.20;;;;;;;14.06;47.87;101813.91;5106624;28;20031;-62
2022/04/26 10:34:52;;;;;;;6.65;5.32;;;;;;;14.03;47.67;101811.63;5099339;28;20429;-63
2022/04/26 10:37:18;;;;;;;7.10;4.45;;;;;;;14.04;47.29;101827.28;5091248;27;20028;-64
2022/04/26 10:39:58;;;;;;;11.63;5.50;;;;;;;14.03;48.13;101809.69;5094284;28;20040;-63
2022/04/26 10:42:29;;;;;;;10.57;4.80;;;;;;;14.00;47.77;101826.94;5084230;28;20115;-63
2022/04/26 10:45:07;;;;;;;7.50;4.93;;;;;;;14.10;47.44;101826.25;5087287;28;20457;-64
2022/04/26 10:47:34;;;;;;;11.75;5.22;;;;;;;14.21;47.70;101820.59;5088480;28;20081;-63
2022/04/26 10:50:00;;;;;;;7.63;4.72;;;;;;;14.30;46.18;101822.97;5094734;28;20148;-63
2022/04/26 10:52:40;;;;;;;6.72;4.60;;;;;;;14.40;45.94;101829.56;5091310;28;20154;-63
2022/04/26 10:55:08;;;;;;;8.68;4.80;;;;;;;14.41;44.65;101827.63;5078083;28;20097;-62
2022/04/26 10:57:39;;;;;;;6.45;5.38;;;;;;;14.35;45.07;101823.06;5101643;28;20028;-63
2022/04/26 11:00:15;;;;;;;5.78;4.57;;;;;;;14.31;45.32;101825.53;5083081;28;20558;-63
2022/04/26 11:02:47;;;;;;;5.53;4.35;;;;;;;14.27;44.83;101829.94;5089614;28;20060;-63
2022/04/26 11:05:15;;;;;;;11.30;5.25;;;;;;;14.23;43.36;101824.00;5100864;28;20099;-63
2022/04/26 11:07:46;;;;;;;10.48;4.82;;;;;;;14.30;42.90;101831.34;5089900;28;20032;-61
2022/04/26 11:10:14;;;;;;;7.78;4.72;;;;;;;14.33;43.13;101825.25;5106476;28;20123;-62
2022/04/26 11:12:43;;;;;;;7.28;5.55;;;;;;;14.39;43.79;101821.47;5084087;28;20016;-64
2022/04/26 11:15:14;;;;;;;7.13;5.35;;;;;;;14.46;44.14;101819.31;5079391;28;20031;-65
2022/04/26 11:17:43;;;;;;;7.55;5.30;;;;;;;14.53;44.23;101830.34;5091796;28;20436;-66
2022/04/26 11:20:14;;;;;;;7.60;4.85;;;;;;;14.64;44.44;101821.03;5074364;28;20048;-64
2022/04/26 11:22:51;;;;;;;7.03;5.07;;;;;;;14.67;45.00;101826.09;5087047;28;20082;-65
2022/04/26 11:28:10;;;;;;;9.15;4.82;;;;;;;14.72;43.68;101815.00;5090904;28;20050;-65
2022/04/26 11:30:51;;;;;;;5.90;4.88;;;;;;;14.76;43.49;101821.75;5092704;28;20093;-65
2022/04/26 11:33:24;;;;;;;7.05;4.93;;;;;;;14.78;42.97;101835.50;5091531;28;20047;-64
2022/04/26 11:35:56;;;;;;;10.18;5.35;;;;;;;14.79;43.12;101821.25;5092299;28;20031;-65
2022/04/26 11:38:22;;;;;;;6.25;5.03;;;;;;;14.90;43.33;101813.84;5092080;28;20028;-64
2022/04/26 11:40:50;;;;;;;10.18;5.50;;;;;;;14.89;42.76;101826.13;5091596;28;20103;-64
2022/04/26 11:43:20;;;;;;;6.43;4.75;;;;;;;14.92;41.23;101822.81;5092311;28;20020;-65
2022/04/26 11:45:51;;;;;;;9.77;5.45;;;;;;;14.89;41.98;101826.13;5092002;28;20488;-65
2022/04/26 11:48:18;;;;;;;8.77;5.22;;;;;;;14.91;41.43;101832.31;5092074;28;20059;-65
2022/04/26 11:50:46;;;;;;;6.93;5.05;;;;;;;14.88;41.14;101832.81;5092800;28;20032;-65
2022/04/26 11:53:17;;;;;;;7.88;5.80;;;;;;;14.83;40.69;101839.19;5096648;28;20084;-65
2022/04/26 11:55:44;;;;;;;6.13;5.20;;;;;;;14.85;41.57;101842.56;5095834;28;20032;-65
2022/04/26 11:58:21;;;;;;;7.03;5.10;;;;;;;14.85;41.40;101841.72;5096056;28;20141;-65
2022/04/26 12:01:11;;;;;;;6.32;5.40;;;;;;;14.90;41.77;101841.81;5095910;28;20040;-65
2022/04/26 12:03:44;;;;;;;7.38;5.28;;;;;;;14.91;41.91;101838.75;5095400;28;20042;-65
2022/04/26 12:06:13;;;;;;;6.78;5.15;;;;;;;14.93;41.33;101841.28;5096264;28;20095;-65
2022/04/26 12:08:46;;;;;;;6.85;5.10;;;;;;;15.00;41.28;101832.69;5094120;28;20475;-65
2022/04/26 12:11:14;;;;;;;8.35;4.78;;;;;;;15.00;40.19;101847.53;5093399;28;20031;-63
2022/04/26 12:13:39;;;;;;;5.60;5.10;;;;;;;15.03;40.45;101835.00;5093775;28;20023;-65
2022/04/26 12:16:21;;;;;;;7.00;5.20;;;;;;;15.04;41.12;101843.09;5086577;28;20107;-65
2022/04/26 12:18:50;;;;;;;5.65;4.90;;;;;;;15.04;39.60;101845.06;5090440;28;20596;-65
2022/04/26 12:21:16;;;;;;;5.60;5.00;;;;;;;15.03;38.94;101843.38;5084860;28;20035;-64
2022/04/26 12:23:41;;;;;;;10.93;5.18;;;;;;;15.00;38.98;101836.34;5085694;28;20050;-65
2022/04/26 12:26:08;;;;;;;68.15;8.82;;;;;;;14.95;39.34;101845.50;5092131;28;20135;-64
2022/04/26 12:28:45;;;;;;;7.40;4.78;;;;;;;14.94;40.19;101841.03;5083798;28;20042;-65
2022/04/26 12:31:29;;;;;;;6.40;4.82;;;;;;;14.98;40.13;101838.56;5090778;28;20032;-65
2022/04/26 12:34:13;;;;;;;5.95;4.80;;;;;;;14.98;39.62;101836.63;5092431;28;20038;-66
2022/04/26 12:37:08;;;;;;;5.57;4.85;;;;;;;14.98;40.21;101856.19;5089728;28;20055;-65
2022/04/26 12:39:48;;;;;;;6.43;4.82;;;;;;;14.93;40.30;101833.75;5085664;28;20138;-67
2022/04/26 12:42:15;;;;;;;8.10;4.72;;;;;;;14.93;39.53;101844.94;5080632;28;20020;-66
2022/04/26 12:44:53;;;;;;;10.48;4.90;;;;;;;14.91;40.56;101844.34;5080486;28;20115;-65
2022/04/26 12:52:58;;;;;;;8.02;4.70;;;;;;;14.97;40.47;101842.44;5084064;28;20058;-66
2022/04/26 12:55:40;;;;;;;6.95;5.20;;;;;;;15.06;40.79;101837.28;5085394;28;20039;-65
2022/04/26 12:58:10;;;;;;;8.82;5.05;;;;;;;15.02;40.95;101839.75;5085104;28;20106;-65
2022/04/26 13:00:39;;;;;;;7.55;5.60;;;;;;;14.97;41.78;101845.25;5085569;28;20066;-63
2022/04/26 13:03:06;;;;;;;10.68;6.03;;;;;;;14.97;41.86;101843.31;5077397;28;20016;-64
2022/04/26 13:05:46;;;;;;;7.50;5.78;;;;;;;14.98;42.16;101844.16;5093144;28;20082;-65
2022/04/26 13:08:14;;;;;;;8.35;5.60;;;;;;;15.02;41.62;101841.69;5088469;28;20040;-66
2022/04/26 13:10:40;;;;;;;7.70;5.50;;;;;;;15.02;41.88;101836.94;5087162;28;20032;-65
2022/04/26 13:13:06;;;;;;;7.38;4.88;;;;;;;15.15;44.78;101838.50;5093569;28;20501;-66
2022/04/26 13:15:31;;;;;;;8.57;3.97;;;;;;;15.50;45.52;101837.25;5091270;28;20040;-66
2022/04/26 13:17:57;;;;;;;8.57;4.60;;;;;;;15.58;43.46;101837.63;5088341;28;20508;-65
2022/04/26 13:20:22;;;;;;;9.93;4.35;;;;;;;15.77;43.94;101838.16;5090900;28;20024;-66
2022/04/26 13:22:48;;;;;;;7.68;5.22;;;;;;;15.72;42.21;101843.69;5092394;28;20028;-66
2022/04/26 13:25:14;;;;;;;7.15;4.13;;;;;;;15.93;42.34;101840.00;5089951;28;20054;-66
2022/04/26 13:27:39;;;;;;;9.52;4.47;;;;;;;15.96;42.63;101838.63;5095181;28;20593;-67
2022/04/26 13:30:06;;;;;;;7.35;4.15;;;;;;;16.13;42.46;101844.09;5084254;28;20020;-66
2022/04/26 13:32:32;;;;;;;9.15;5.30;;;;;;;16.10;42.19;101833.41;5083998;28;20465;-64
2022/04/26 13:34:58;;;;;;;7.50;4.80;;;;;;;16.14;42.47;101828.97;5093793;28;20118;-64
2022/04/26 13:37:24;;;;;;;9.63;4.60;;;;;;;16.09;41.45;101840.97;5089286;28;20032;-64
2022/04/26 13:39:50;;;;;;;7.15;4.28;;;;;;;16.04;42.54;101837.28;5093607;28;20482;-65
2022/04/26 13:42:19;;;;;;;7.53;4.60;;;;;;;15.90;41.76;101845.28;5088943;28;20024;-65
2022/04/26 13:44:45;;;;;;;5.15;4.50;;;;;;;15.92;41.96;101846.69;5088017;28;20029;-66
2022/04/26 13:47:10;;;;;;;7.55;5.18;;;;;;;15.88;41.88;101853.94;5092311;28;20145;-66
2022/04/26 13:49:36;;;;;;;11.85;5.18;;;;;;;15.86;41.53;101846.91;5102267;28;20051;-64
2022/04/26 13:52:03;;;;;;;7.68;5.30;;;;;;;15.77;41.81;101852.13;5110858;28;20032;-65
2022/04/26 13:54:31;;;;;;;6.72;4.78;;;;;;;15.72;41.31;101854.91;5093482;28;20028;-64
2022/04/26 13:56:57;;;;;;;7.50;4.15;;;;;;;15.77;42.19;101859.69;5088428;28;20020;-64
2022/04/26 13:59:23;;;;;;;7.05;4.07;;;;;;;15.72;42.02;101860.50;5091356;28;20055;-65
2022/04/26 14:01:49;;;;;;;9.10;5.10;;;;;;;15.69;41.18;101858.22;5090819;28;20044;-64
2022/04/26 14:04:15;;;;;;;5.72;3.92;;;;;;;15.67;40.69;101860.41;5097379;28;20036;-64
2022/04/26 14:06:41;;;;;;;4.70;4.10;;;;;;;15.63;40.82;101857.25;5103110;28;20039;-64
2022/04/26 14:09:14;;;;;;;5.22;3.55;;;;;;;15.59;41.09;101855.25;5089452;28;20468;-65
2022/04/26 14:11:42;;;;;;;6.43;4.47;;;;;;;15.64;41.21;101849.72;5102229;28;20028;-65
2022/04/26 14:22:32;;;;;;;5.35;3.17;;;;;;;15.71;40.32;101850.38;5080240;28;20042;-63
2022/04/26 14:25:03;;;;;;;5.50;3.60;;;;;;;15.68;40.94;101859.34;5085868;28;20480;-63
2022/04/26 14:27:30;;;;;;;4.63;3.10;;;;;;;15.70;40.49;101857.09;5070548;28;20024;-63
2022/04/26 14:29:55;;;;;;;5.93;3.35;;;;;;;15.81;40.02;101860.88;5090645;28;20118;-62
2022/04/26 14:32:21;;;;;;;6.10;3.67;;;;;;;15.69;39.20;101863.81;5095730;28;20134;-62
2022/04/26 14:34:47;;;;;;;5.25;3.85;;;;;;;15.67;38.85;101857.63;5088043;28;20468;-64
2022/04/26 14:37:12;;;;;;;8.70;3.42;;;;;;;15.79;39.50;101863.06;5084623;28;20023;-63
2022/04/26 14:39:38;;;;;;;5.88;3.90;;;;;;;15.62;39.03;101865.94;5087228;28;20039;-64
2022/04/26 14:42:04;;;;;;;4.43;3.72;;;;;;;15.63;39.35;101862.03;5089195;28;20121;-63
2022/04/26 14:44:29;;;;;;;7.53;4.55;;;;;;;15.58;39.31;101860.00;5094178;28;20497;-63
2022/04/26 14:46:54;;;;;;;6.35;4.00;;;;;;;15.55;39.49;101866.13;5085893;28;20615;-63
2022/04/26 14:49:20;;;;;;;5.35;3.53;;;;;;;15.57;39.38;101863.94;5083100;28;20133;-62
2022/04/26 14:51:46;;;;;;;6.15;3.80;;;;;;;15.58;39.86;101864.78;5072278;28;20713;-63
2022/04/26 14:54:14;;;;;;;5.40;4.22;;;;;;;15.47;39.41;101866.59;5071952;28;20040;-62
2022/04/26 14:56:39;;;;;;;7.95;4.20;;;;;;;15.38;40.20;101863.41;5083029;28;20137;-62
2022/04/26 14:59:07;;;;;;;5.80;4.18;;;;;;;15.36;40.08;101861.97;5079872;28;20107;-64
2022/04/26 15:01:33;;;;;;;7.07;4.07;;;;;;;15.33;40.11;101870.91;5087811;28;20036;-62
2022/04/26 15:04:02;;;;;;;5.32;4.18;;;;;;;15.24;39.55;101867.69;5083033;28;20377;-62
2022/04/26 15:06:27;;;;;;;7.85;4.30;;;;;;;15.18;39.51;101871.56;5084876;28;20030;-61
2022/04/26 15:11:36;;;;;;;4.82;4.28;;;;;;;15.12;39.34;101875.38;5081173;28;20081;-62
2022/04/26 15:16:47;;;;;;;4.65;3.47;;;;;;;15.34;42.51;101862.25;5084120;28;20100;-63
2022/04/26 15:19:14;;;;;;;6.32;4.43;;;;;;;15.30;39.97;101861.06;5085165;28;20058;-63
2022/04/26 15:21:44;;;;;;;6.28;4.65;;;;;;;15.32;39.03;101860.81;5093927;28;20073;-60
2022/04/26 15:24:10;;;;;;;6.20;4.07;;;;;;;15.34;39.37;101861.41;5084370;28;20031;-63
2022/04/26 15:26:37;;;;;;;6.60;4.18;;;;;;;15.32;38.89;101867.25;5081455;28;20036;-63
2022/04/26 15:29:06;;;;;;;6.93;3.70;;;;;;;15.32;38.41;101867.25;5081255;28;20081;-63
2022/04/26 15:31:33;;;;;;;4.30;3.25;;;;;;;15.33;38.48;101865.31;5081769;28;20047;-62
2022/04/26 15:34:02;;;;;;;6.25;3.35;;;;;;;15.30;37.79;101866.66;5082220;28;20135;-62
2022/04/26 15:36:30;;;;;;;5.43;3.40;;;;;;;15.29;37.85;101856.59;5090377;28;20031;-62
2022/04/26 15:38:56;;;;;;;7.03;3.40;;;;;;;15.29;37.41;101866.91;5087772;28;20036;-62